createdAt,value
2018-03-24T00:00:42.101Z,0.00
2018-03-24T00:01:42.028Z,0.00
2018-03-24T00:02:41.932Z,0.00
2018-03-24T00:03:41.861Z,0.00
2018-03-24T00:04:41.776Z,0.00
2018-03-24T00:05:41.693Z,0.00
2018-03-24T00:06:41.660Z,0.00
2018-03-24T00:07:41.533Z,0.00
2018-03-24T00:08:41.444Z,0.00
2018-03-24T00:09:41.380Z,0.00
2018-03-24T00:10:41.283Z,0.00
2018-03-24T00:11:41.211Z,0.00
2018-03-24T00:12:41.122Z,0.00
2018-03-24T00:13:41.049Z,0.00
2018-03-24T00:14:40.965Z,0.00
2018-03-24T00:15:40.883Z,0.00
2018-03-24T00:16:40.798Z,0.00
2018-03-24T00:17:40.725Z,0.00
2018-03-24T00:18:40.637Z,0.00
2018-03-24T00:19:40.563Z,0.00
2018-03-24T00:20:40.474Z,0.00
2018-03-24T00:21:40.397Z,0.00
2018-03-24T00:22:40.311Z,0.00
2018-03-24T00:23:40.245Z,0.00
2018-03-24T00:24:40.155Z,0.00
2018-03-24T00:25:40.076Z,0.00
2018-03-24T00:26:39.987Z,0.00
2018-03-24T00:27:39.915Z,0.00
2018-03-24T00:28:39.826Z,0.00
2018-03-24T00:29:39.752Z,0.00
2018-03-24T00:30:39.663Z,0.00
2018-03-24T00:31:39.589Z,0.00
2018-03-24T00:32:39.503Z,0.00
2018-03-24T00:33:39.427Z,0.00
2018-03-24T00:34:39.334Z,0.00
2018-03-24T00:35:39.274Z,0.00
2018-03-24T00:36:39.178Z,0.00
2018-03-24T00:37:39.107Z,0.00
2018-03-24T00:38:39.016Z,0.00
2018-03-24T00:39:38.940Z,0.00
2018-03-24T00:40:38.852Z,0.00
2018-03-24T00:41:38.784Z,0.00
2018-03-24T00:42:38.693Z,0.00
2018-03-24T00:43:38.617Z,0.00
2018-03-24T00:44:38.529Z,0.00
2018-03-24T00:45:38.458Z,0.00
2018-03-24T00:46:38.368Z,0.00
2018-03-24T00:47:38.302Z,0.00
2018-03-24T00:48:38.206Z,0.00
2018-03-24T00:49:38.130Z,0.00
2018-03-24T00:50:38.044Z,0.00
2018-03-24T00:51:37.971Z,0.00
2018-03-24T00:52:37.882Z,0.00
2018-03-24T00:53:37.813Z,0.00
2018-03-24T00:54:37.720Z,0.00
2018-03-24T00:55:37.648Z,0.00
2018-03-24T00:56:37.558Z,0.00
2018-03-24T00:57:37.485Z,0.00
2018-03-24T00:58:37.396Z,0.00
2018-03-24T00:59:37.321Z,0.00
2018-03-24T01:00:37.233Z,0.00
2018-03-24T01:01:37.158Z,0.00
2018-03-24T01:02:37.074Z,0.00
2018-03-24T01:03:36.997Z,0.00
2018-03-24T01:04:36.915Z,0.00
2018-03-24T01:05:36.835Z,0.00
2018-03-24T01:06:36.749Z,0.00
2018-03-24T01:07:36.672Z,0.00
2018-03-24T01:08:36.583Z,0.00
2018-03-24T01:09:36.511Z,0.00
2018-03-24T01:10:36.424Z,0.00
2018-03-24T01:11:36.348Z,0.00
2018-03-24T01:12:36.260Z,0.00
2018-03-24T01:13:36.189Z,0.00
2018-03-24T01:14:36.096Z,0.00
2018-03-24T01:15:36.025Z,0.00
2018-03-24T01:16:35.935Z,0.00
2018-03-24T01:17:35.868Z,0.00
2018-03-24T01:18:35.772Z,0.00
2018-03-24T01:19:36.703Z,0.00
2018-03-24T01:20:35.611Z,0.00
2018-03-24T01:21:35.540Z,0.00
2018-03-24T01:22:35.447Z,0.00
2018-03-24T01:23:35.377Z,0.00
2018-03-24T01:24:35.287Z,0.00
2018-03-24T01:25:35.219Z,0.00
2018-03-24T01:26:35.126Z,0.00
2018-03-24T01:27:35.057Z,0.00
2018-03-24T01:28:34.967Z,0.00
2018-03-24T01:29:34.888Z,0.00
2018-03-24T01:30:34.802Z,0.00
2018-03-24T01:31:34.731Z,0.00
2018-03-24T01:32:34.639Z,0.00
2018-03-24T01:33:34.566Z,0.00
2018-03-24T01:34:34.476Z,0.00
2018-03-24T01:35:34.409Z,0.00
2018-03-24T01:36:34.314Z,0.00
2018-03-24T01:37:34.240Z,0.00
2018-03-24T01:38:34.153Z,0.00
2018-03-24T01:39:34.079Z,0.00
2018-03-24T01:40:33.989Z,0.00
2018-03-24T01:41:33.913Z,0.00
2018-03-24T01:42:33.829Z,0.00
2018-03-24T01:43:33.752Z,0.00
2018-03-24T01:44:33.670Z,0.00
2018-03-24T01:45:33.591Z,0.00
2018-03-24T01:46:33.514Z,0.00
2018-03-24T01:47:33.434Z,0.00
2018-03-24T01:48:33.341Z,0.00
2018-03-24T01:49:33.268Z,0.00
2018-03-24T01:50:33.181Z,0.00
2018-03-24T01:51:33.106Z,0.00
2018-03-24T01:52:33.012Z,0.00
2018-03-24T01:53:32.945Z,0.00
2018-03-24T01:54:32.853Z,0.00
2018-03-24T01:55:32.779Z,0.00
2018-03-24T01:56:32.691Z,0.00
2018-03-24T01:57:32.616Z,0.00
2018-03-24T01:58:32.530Z,0.00
2018-03-24T01:59:32.455Z,0.00
2018-03-24T02:00:32.363Z,0.00
2018-03-24T02:01:32.292Z,0.00
2018-03-24T02:02:32.205Z,0.00
2018-03-24T02:03:32.130Z,0.00
2018-03-24T02:04:32.042Z,0.00
2018-03-24T02:05:31.973Z,0.00
2018-03-24T02:06:31.876Z,0.00
2018-03-24T02:07:31.807Z,0.00
2018-03-24T02:08:31.716Z,0.00
2018-03-24T02:09:31.702Z,0.00
2018-03-24T02:10:31.554Z,0.00
2018-03-24T02:11:31.499Z,0.00
2018-03-24T02:12:31.394Z,0.00
2018-03-24T02:13:31.320Z,0.00
2018-03-24T02:14:31.228Z,0.00
2018-03-24T02:15:31.155Z,0.00
2018-03-24T02:16:31.067Z,0.00
2018-03-24T02:17:30.993Z,0.00
2018-03-24T02:18:30.904Z,0.00
2018-03-24T02:19:30.832Z,0.00
2018-03-24T02:20:30.743Z,0.00
2018-03-24T02:21:30.670Z,0.00
2018-03-24T02:22:30.579Z,0.00
2018-03-24T02:23:30.504Z,0.00
2018-03-24T02:24:30.414Z,0.00
2018-03-24T02:25:30.341Z,0.00
2018-03-24T02:26:30.258Z,0.00
2018-03-24T02:27:30.178Z,0.00
2018-03-24T02:28:30.095Z,0.00
2018-03-24T02:29:30.016Z,0.00
2018-03-24T02:30:29.929Z,0.00
2018-03-24T02:31:29.850Z,0.00
2018-03-24T02:32:29.766Z,0.00
2018-03-24T02:33:29.689Z,0.00
2018-03-24T02:34:29.601Z,0.00
2018-03-24T02:35:29.526Z,0.00
2018-03-24T02:36:29.441Z,0.00
2018-03-24T02:37:29.368Z,0.00
2018-03-24T02:38:29.276Z,0.00
2018-03-24T02:39:29.202Z,0.00
2018-03-24T02:40:29.126Z,0.00
2018-03-24T02:41:29.038Z,0.00
2018-03-24T02:42:28.953Z,0.00
2018-03-24T02:43:28.876Z,0.00
2018-03-24T02:44:28.788Z,0.00
2018-03-24T02:45:28.708Z,0.00
2018-03-24T02:46:28.623Z,0.00
2018-03-24T02:47:28.556Z,0.00
2018-03-24T02:48:28.462Z,0.00
2018-03-24T02:49:28.384Z,0.00
2018-03-24T02:50:28.297Z,0.00
2018-03-24T02:51:28.223Z,0.00
2018-03-24T02:52:28.132Z,0.00
2018-03-24T02:53:28.062Z,0.00
2018-03-24T02:54:27.970Z,0.00
2018-03-24T02:55:27.896Z,0.00
2018-03-24T02:56:27.807Z,0.00
2018-03-24T02:57:27.732Z,0.00
2018-03-24T02:58:27.643Z,0.00
2018-03-24T02:59:27.578Z,0.00
2018-03-24T03:00:27.481Z,0.00
2018-03-24T03:01:27.404Z,0.00
2018-03-24T03:02:27.347Z,0.00
2018-03-24T03:03:27.241Z,0.00
2018-03-24T03:04:27.861Z,0.00
2018-03-24T03:05:27.074Z,0.00
2018-03-24T03:06:26.994Z,0.00
2018-03-24T03:07:26.913Z,0.00
2018-03-24T03:08:26.822Z,0.00
2018-03-24T03:09:26.750Z,0.00
2018-03-24T03:10:26.666Z,0.00
2018-03-24T03:11:26.588Z,0.00
2018-03-24T03:12:26.500Z,0.00
2018-03-24T03:13:26.426Z,0.00
2018-03-24T03:14:26.336Z,0.00
2018-03-24T03:15:26.263Z,0.00
2018-03-24T03:16:26.173Z,0.00
2018-03-24T03:17:26.099Z,0.00
2018-03-24T03:18:26.007Z,0.00
2018-03-24T03:19:25.937Z,0.00
2018-03-24T03:20:25.846Z,0.00
2018-03-24T03:21:25.770Z,0.00
2018-03-24T03:22:25.679Z,0.00
2018-03-24T03:23:25.610Z,0.00
2018-03-24T03:24:25.515Z,0.00
2018-03-24T03:25:25.443Z,0.00
2018-03-24T03:26:25.358Z,0.00
2018-03-24T03:27:25.280Z,0.00
2018-03-24T03:28:25.190Z,0.00
2018-03-24T03:29:25.117Z,0.00
2018-03-24T03:30:25.029Z,0.00
2018-03-24T03:31:24.957Z,0.00
2018-03-24T03:32:24.859Z,0.00
2018-03-24T03:33:24.788Z,0.00
2018-03-24T03:34:24.697Z,0.00
2018-03-24T03:35:24.625Z,0.00
2018-03-24T03:36:24.555Z,0.00
2018-03-24T03:37:24.459Z,0.00
2018-03-24T03:38:24.369Z,0.00
2018-03-24T03:39:24.296Z,0.00
2018-03-24T03:40:24.205Z,0.00
2018-03-24T03:41:24.131Z,0.00
2018-03-24T03:42:24.041Z,0.00
2018-03-24T03:43:23.969Z,0.00
2018-03-24T03:44:23.880Z,0.00
2018-03-24T03:45:23.802Z,0.00
2018-03-24T03:46:23.715Z,0.00
2018-03-24T03:47:23.638Z,0.00
2018-03-24T03:48:23.543Z,0.00
2018-03-24T03:49:23.475Z,0.00
2018-03-24T03:50:23.388Z,0.00
2018-03-24T03:51:23.313Z,0.00
2018-03-24T03:52:23.223Z,0.00
2018-03-24T03:53:23.146Z,0.00
2018-03-24T03:54:23.056Z,0.00
2018-03-24T03:55:22.981Z,0.00
2018-03-24T03:56:22.890Z,0.00
2018-03-24T03:57:22.816Z,0.00
2018-03-24T03:58:22.732Z,0.00
2018-03-24T03:59:22.654Z,0.00
2018-03-24T04:00:22.564Z,0.00
2018-03-24T04:01:22.491Z,0.00
2018-03-24T04:02:22.403Z,0.00
2018-03-24T04:03:22.323Z,0.00
2018-03-24T04:04:22.234Z,0.00
2018-03-24T04:05:22.164Z,0.00
2018-03-24T04:06:22.071Z,0.00
2018-03-24T04:07:21.998Z,0.00
2018-03-24T04:08:21.907Z,0.00
2018-03-24T04:09:21.845Z,0.00
2018-03-24T04:10:21.739Z,0.00
2018-03-24T04:11:21.670Z,0.00
2018-03-24T04:12:21.583Z,0.00
2018-03-24T04:13:21.502Z,0.00
2018-03-24T04:14:21.415Z,0.00
2018-03-24T04:15:21.343Z,0.00
2018-03-24T04:16:21.250Z,0.00
2018-03-24T04:17:21.172Z,0.00
2018-03-24T04:18:21.086Z,0.00
2018-03-24T04:19:21.011Z,0.00
2018-03-24T04:20:20.925Z,0.00
2018-03-24T04:21:20.843Z,0.00
2018-03-24T04:22:20.759Z,0.00
2018-03-24T04:23:20.686Z,0.00
2018-03-24T04:24:20.597Z,0.00
2018-03-24T04:25:20.517Z,0.00
2018-03-24T04:26:20.434Z,0.00
2018-03-24T04:27:20.352Z,0.00
2018-03-24T04:28:20.266Z,0.00
2018-03-24T04:29:20.188Z,0.00
2018-03-24T04:30:20.116Z,0.00
2018-03-24T04:31:20.025Z,0.00
2018-03-24T04:32:19.936Z,0.00
2018-03-24T04:33:19.860Z,0.00
2018-03-24T04:34:19.776Z,0.00
2018-03-24T04:35:19.695Z,0.00
2018-03-24T04:36:19.608Z,0.00
2018-03-24T04:37:19.530Z,0.00
2018-03-24T04:38:19.444Z,0.00
2018-03-24T04:39:19.368Z,0.00
2018-03-24T04:40:19.277Z,0.00
2018-03-24T04:41:19.203Z,0.00
2018-03-24T04:42:19.111Z,0.00
2018-03-24T04:43:19.039Z,0.00
2018-03-24T04:44:18.949Z,0.00
2018-03-24T04:45:18.871Z,0.00
2018-03-24T04:46:18.782Z,0.00
2018-03-24T04:47:18.708Z,0.00
2018-03-24T04:48:18.619Z,0.00
2018-03-24T04:49:18.543Z,0.00
2018-03-24T04:50:18.456Z,0.00
2018-03-24T04:51:18.375Z,0.00
2018-03-24T04:52:18.290Z,4.00
2018-03-24T04:53:18.214Z,0.00
2018-03-24T04:54:18.131Z,0.00
2018-03-24T04:55:18.052Z,4.00
2018-03-24T04:56:17.961Z,0.00
2018-03-24T04:57:17.886Z,4.00
2018-03-24T04:58:17.795Z,0.00
2018-03-24T04:59:17.721Z,4.00
2018-03-24T05:00:17.633Z,4.00
2018-03-24T05:01:17.554Z,4.00
2018-03-24T05:02:17.469Z,4.00
2018-03-24T05:03:17.412Z,4.00
2018-03-24T05:04:17.303Z,4.00
2018-03-24T05:05:17.228Z,8.00
2018-03-24T05:06:17.136Z,8.00
2018-03-24T05:07:17.060Z,12.00
2018-03-24T05:08:16.971Z,12.00
2018-03-24T05:09:16.895Z,8.00
2018-03-24T05:10:16.809Z,12.00
2018-03-24T05:11:16.733Z,16.00
2018-03-24T05:12:16.644Z,16.00
2018-03-24T05:13:16.568Z,16.00
2018-03-24T05:14:16.477Z,20.00
2018-03-24T05:15:16.404Z,20.00
2018-03-24T05:16:16.314Z,20.00
2018-03-24T05:17:16.237Z,24.00
2018-03-24T05:18:16.149Z,24.00
2018-03-24T05:19:16.075Z,28.00
2018-03-24T05:20:15.986Z,32.00
2018-03-24T05:21:15.905Z,32.00
2018-03-24T05:22:15.818Z,36.00
2018-03-24T05:23:15.749Z,40.00
2018-03-24T05:24:15.654Z,44.00
2018-03-24T05:25:15.578Z,48.00
2018-03-24T05:26:15.502Z,48.00
2018-03-24T05:27:15.419Z,52.00
2018-03-24T05:28:15.333Z,56.00
2018-03-24T05:29:15.252Z,56.00
2018-03-24T05:30:15.154Z,60.00
2018-03-24T05:31:15.086Z,64.00
2018-03-24T05:32:14.992Z,72.00
2018-03-24T05:33:14.915Z,72.00
2018-03-24T05:34:14.830Z,76.00
2018-03-24T05:35:14.754Z,84.00
2018-03-24T05:36:14.668Z,88.00
2018-03-24T05:37:14.591Z,92.00
2018-03-24T05:38:14.502Z,96.00
2018-03-24T05:39:14.426Z,104.00
2018-03-24T05:40:14.336Z,108.00
2018-03-24T05:41:14.253Z,112.00
2018-03-24T05:42:14.173Z,116.00
2018-03-24T05:43:14.104Z,116.00
2018-03-24T05:44:14.006Z,124.00
2018-03-24T05:45:13.928Z,124.00
2018-03-24T05:46:13.839Z,128.00
2018-03-24T05:47:13.776Z,140.00
2018-03-24T05:48:13.674Z,148.00
2018-03-24T05:49:13.600Z,152.00
2018-03-24T05:50:13.509Z,160.00
2018-03-24T05:51:13.439Z,168.00
2018-03-24T05:52:13.343Z,164.00
2018-03-24T05:53:13.268Z,168.00
2018-03-24T05:54:13.183Z,172.00
2018-03-24T05:55:13.103Z,176.00
2018-03-24T05:56:13.012Z,180.00
2018-03-24T05:57:12.938Z,188.00
2018-03-24T05:58:12.847Z,200.00
2018-03-24T05:59:12.777Z,208.00
2018-03-24T06:00:12.681Z,220.00
2018-03-24T06:01:12.605Z,232.00
2018-03-24T06:02:12.521Z,240.00
2018-03-24T06:03:12.441Z,248.00
2018-03-24T06:04:12.354Z,252.00
2018-03-24T06:05:12.279Z,252.00
2018-03-24T06:06:12.188Z,252.00
2018-03-24T06:07:12.113Z,256.00
2018-03-24T06:08:12.022Z,264.00
2018-03-24T06:09:11.950Z,272.00
2018-03-24T06:10:11.858Z,288.00
2018-03-24T06:11:11.781Z,296.00
2018-03-24T06:12:11.695Z,296.00
2018-03-24T06:13:11.618Z,300.00
2018-03-24T06:14:11.529Z,308.00
2018-03-24T06:15:11.450Z,320.00
2018-03-24T06:16:11.363Z,336.00
2018-03-24T06:17:11.288Z,344.00
2018-03-24T06:18:11.205Z,352.00
2018-03-24T06:19:11.119Z,352.00
2018-03-24T06:20:11.035Z,356.00
2018-03-24T06:21:10.959Z,376.00
2018-03-24T06:22:10.874Z,388.00
2018-03-24T06:23:10.792Z,380.00
2018-03-24T06:24:10.709Z,384.00
2018-03-24T06:25:10.628Z,392.00
2018-03-24T06:26:10.537Z,396.00
2018-03-24T06:27:10.464Z,400.00
2018-03-24T06:28:10.377Z,408.00
2018-03-24T06:29:10.300Z,440.00
2018-03-24T06:30:10.210Z,472.00
2018-03-24T06:31:10.136Z,444.00
2018-03-24T06:32:10.044Z,456.00
2018-03-24T06:33:09.972Z,456.00
2018-03-24T06:34:09.880Z,484.00
2018-03-24T06:35:09.804Z,480.00
2018-03-24T06:36:09.715Z,492.00
2018-03-24T06:37:09.642Z,520.00
2018-03-24T06:38:09.593Z,520.00
2018-03-24T06:39:09.493Z,544.00
2018-03-24T06:40:09.387Z,552.00
2018-03-24T06:41:09.310Z,580.00
2018-03-24T06:42:09.220Z,580.00
2018-03-24T06:43:09.152Z,616.00
2018-03-24T06:44:09.057Z,624.00
2018-03-24T06:45:08.978Z,628.00
2018-03-24T06:46:08.893Z,612.00
2018-03-24T06:47:08.821Z,620.00
2018-03-24T06:48:08.735Z,508.00
2018-03-24T06:49:08.654Z,456.00
2018-03-24T06:50:08.562Z,492.00
2018-03-24T06:51:08.489Z,632.00
2018-03-24T06:52:08.401Z,660.00
2018-03-24T06:53:08.326Z,536.00
2018-03-24T06:54:08.239Z,492.00
2018-03-24T06:55:09.156Z,560.00
2018-03-24T06:56:08.070Z,516.00
2018-03-24T06:57:07.995Z,496.00
2018-03-24T06:58:08.009Z,520.00
2018-03-24T06:59:07.821Z,524.00
2018-03-24T07:00:07.817Z,488.00
2018-03-24T07:01:07.664Z,488.00
2018-03-24T07:02:07.627Z,520.00
2018-03-24T07:03:07.494Z,528.00
2018-03-24T07:04:07.443Z,496.00
2018-03-24T07:05:07.330Z,496.00
2018-03-24T07:06:07.351Z,448.00
2018-03-24T07:07:07.221Z,436.00
2018-03-24T07:08:07.159Z,420.00
2018-03-24T07:09:07.004Z,436.00
2018-03-24T07:10:06.978Z,416.00
2018-03-24T07:11:06.842Z,428.00
2018-03-24T07:12:06.879Z,464.00
2018-03-24T07:13:06.680Z,376.00
2018-03-24T07:14:06.686Z,388.00
2018-03-24T07:15:06.507Z,416.00
2018-03-24T07:16:07.532Z,448.00
2018-03-24T07:17:06.346Z,424.00
2018-03-24T07:18:06.306Z,432.00
2018-03-24T07:19:06.181Z,492.00
2018-03-24T07:20:06.215Z,464.00
2018-03-24T07:21:06.018Z,444.00
2018-03-24T07:22:05.946Z,476.00
2018-03-24T07:23:05.860Z,388.00
2018-03-24T07:24:05.835Z,432.00
2018-03-24T07:25:05.701Z,420.00
2018-03-24T07:26:05.646Z,420.00
2018-03-24T07:27:05.527Z,408.00
2018-03-24T07:28:05.556Z,416.00
2018-03-24T07:29:05.370Z,428.00
2018-03-24T07:30:05.364Z,404.00
2018-03-24T07:31:05.203Z,428.00
2018-03-24T07:32:05.171Z,436.00
2018-03-24T07:33:05.041Z,460.00
2018-03-24T07:34:04.979Z,460.00
2018-03-24T07:35:04.871Z,432.00
2018-03-24T07:36:04.891Z,436.00
2018-03-24T07:37:04.712Z,452.00
2018-03-24T07:38:04.700Z,480.00
2018-03-24T07:39:04.549Z,464.00
2018-03-24T07:40:04.511Z,436.00
2018-03-24T07:41:04.382Z,532.00
2018-03-24T07:42:04.421Z,452.00
2018-03-24T07:43:04.224Z,500.00
2018-03-24T07:44:04.230Z,512.00
2018-03-24T07:45:04.059Z,532.00
2018-03-24T07:46:05.063Z,496.00
2018-03-24T07:47:03.900Z,448.00
2018-03-24T07:48:03.848Z,448.00
2018-03-24T07:49:03.736Z,492.00
2018-03-24T07:50:03.763Z,504.00
2018-03-24T07:51:03.575Z,400.00
2018-03-24T07:52:03.567Z,396.00
2018-03-24T07:53:03.409Z,440.00
2018-03-24T07:54:03.371Z,424.00
2018-03-24T07:55:03.243Z,436.00
2018-03-24T07:56:03.186Z,432.00
2018-03-24T07:57:03.079Z,552.00
2018-03-24T07:58:03.097Z,644.00
2018-03-24T07:59:02.915Z,628.00
2018-03-24T08:00:02.907Z,656.00
2018-03-24T08:01:02.756Z,660.00
2018-03-24T08:02:02.718Z,708.00
2018-03-24T08:03:02.592Z,716.00
2018-03-24T08:04:02.628Z,776.00
2018-03-24T08:05:02.433Z,868.00
2018-03-24T08:06:02.438Z,816.00
2018-03-24T08:07:02.270Z,840.00
2018-03-24T08:08:02.243Z,720.00
2018-03-24T08:09:02.105Z,684.00
2018-03-24T08:10:02.053Z,620.00
2018-03-24T08:11:01.940Z,660.00
2018-03-24T08:12:01.965Z,900.00
2018-03-24T08:13:01.782Z,1828.00
2018-03-24T08:14:01.772Z,2204.00
2018-03-24T08:15:01.616Z,992.00
2018-03-24T08:16:01.583Z,1004.00
2018-03-24T08:17:01.462Z,1212.00
2018-03-24T08:18:01.496Z,2084.00
2018-03-24T08:19:01.292Z,2692.00
2018-03-24T08:20:01.304Z,2692.00
2018-03-24T08:21:01.130Z,2776.00
2018-03-24T08:22:01.114Z,2844.00
2018-03-24T08:23:00.966Z,2864.00
2018-03-24T08:24:00.924Z,2984.00
2018-03-24T08:25:00.806Z,3024.00
2018-03-24T08:26:00.834Z,3036.00
2018-03-24T08:27:00.645Z,3080.00
2018-03-24T08:28:00.646Z,2904.00
2018-03-24T08:29:00.483Z,2268.00
2018-03-24T08:30:00.454Z,2780.00
2018-03-24T08:31:00.324Z,2848.00
2018-03-24T08:32:00.361Z,2772.00
2018-03-24T08:33:00.163Z,2764.00
2018-03-24T08:34:00.177Z,2696.00
2018-03-24T08:35:00.002Z,3028.00
2018-03-24T08:35:59.984Z,3004.00
2018-03-24T08:36:59.849Z,2984.00
2018-03-24T08:37:59.791Z,3028.00
2018-03-24T08:38:59.683Z,3168.00
2018-03-24T08:39:59.700Z,3184.00
2018-03-24T08:40:59.524Z,3016.00
2018-03-24T08:41:59.511Z,3204.00
2018-03-24T08:42:59.362Z,2984.00
2018-03-24T08:43:59.292Z,3004.00
2018-03-24T08:44:59.198Z,964.00
2018-03-24T08:45:59.230Z,864.00
2018-03-24T08:46:59.044Z,3232.00
2018-03-24T08:47:59.040Z,3140.00
2018-03-24T08:48:58.886Z,3124.00
2018-03-24T11:09:31.910Z,3912.00
2018-03-24T11:10:31.898Z,3596.00
2018-03-24T11:11:31.735Z,2436.00
2018-03-24T11:12:31.705Z,1816.00
2018-03-24T11:13:31.572Z,2484.00
2018-03-24T11:14:31.514Z,3024.00
2018-03-24T11:15:31.411Z,2196.00
2018-03-24T11:16:31.428Z,1636.00
2018-03-24T11:17:31.247Z,1280.00
2018-03-24T11:18:31.234Z,1208.00
2018-03-24T11:19:31.096Z,1176.00
2018-03-24T11:20:31.043Z,1164.00
2018-03-24T11:21:30.931Z,1200.00
2018-03-24T11:22:30.951Z,1200.00
2018-03-24T11:23:30.769Z,1232.00
2018-03-24T11:24:30.766Z,1276.00
2018-03-24T11:25:30.613Z,1284.00
2018-03-24T11:26:30.634Z,1172.00
2018-03-24T11:27:30.453Z,1120.00
2018-03-24T11:28:30.479Z,1080.00
2018-03-24T11:29:30.300Z,1080.00
2018-03-24T11:30:30.294Z,1104.00
2018-03-24T11:31:30.143Z,1068.00
2018-03-24T11:32:30.099Z,1044.00
2018-03-24T11:33:29.988Z,1036.00
2018-03-24T11:34:30.009Z,1012.00
2018-03-24T11:35:29.833Z,980.00
2018-03-24T11:36:29.834Z,952.00
2018-03-24T11:37:29.676Z,940.00
2018-03-24T11:38:29.622Z,936.00
2018-03-24T11:39:29.518Z,932.00
2018-03-24T11:40:29.571Z,928.00
2018-03-24T11:41:29.369Z,928.00
2018-03-24T11:42:29.346Z,952.00
2018-03-24T11:43:29.209Z,992.00
2018-03-24T11:44:29.153Z,1020.00
2018-03-24T11:45:29.053Z,1028.00
2018-03-24T11:46:29.063Z,1044.00
2018-03-24T11:47:28.897Z,1064.00
2018-03-24T11:48:28.871Z,1120.00
2018-03-24T11:49:28.745Z,1124.00
2018-03-24T11:50:28.679Z,1108.00
2018-03-24T11:51:28.590Z,1092.00
2018-03-24T11:52:28.592Z,1084.00
2018-03-24T11:53:28.432Z,1084.00
2018-03-24T11:54:28.400Z,1100.00
2018-03-24T11:55:28.284Z,1148.00
2018-03-24T11:56:28.309Z,1136.00
2018-03-24T11:57:28.131Z,1144.00
2018-03-24T11:58:28.122Z,1128.00
2018-03-24T11:59:27.978Z,1124.00
2018-03-24T12:00:27.926Z,1104.00
2018-03-24T12:01:27.819Z,1096.00
2018-03-24T12:02:27.838Z,1084.00
2018-03-24T12:03:27.717Z,1056.00
2018-03-24T12:04:27.648Z,1024.00
2018-03-24T12:05:27.509Z,1000.00
2018-03-24T12:06:27.462Z,972.00
2018-03-24T12:07:27.355Z,948.00
2018-03-24T12:08:27.367Z,920.00
2018-03-24T12:09:27.205Z,908.00
2018-03-24T12:10:27.173Z,892.00
2018-03-24T12:11:27.051Z,872.00
2018-03-24T12:12:27.082Z,856.00
2018-03-24T12:13:26.897Z,820.00
2018-03-24T12:14:26.897Z,788.00
2018-03-24T12:15:26.742Z,756.00
2018-03-24T12:16:26.765Z,724.00
2018-03-24T12:17:26.589Z,716.00
2018-03-24T12:18:26.611Z,720.00
2018-03-24T12:19:26.434Z,740.00
2018-03-24T12:20:26.421Z,764.00
2018-03-24T12:21:26.302Z,1296.00
2018-03-24T12:22:26.230Z,752.00
2018-03-24T12:23:26.128Z,712.00
2018-03-24T12:24:26.134Z,696.00
2018-03-24T12:25:25.983Z,700.00
2018-03-24T12:26:25.948Z,732.00
2018-03-24T12:27:25.820Z,752.00
2018-03-24T12:28:25.858Z,708.00
2018-03-24T12:29:25.683Z,760.00
2018-03-24T12:30:25.667Z,724.00
2018-03-24T12:31:25.518Z,732.00
2018-03-24T12:32:25.476Z,712.00
2018-03-24T12:33:25.368Z,744.00
2018-03-24T12:34:25.387Z,860.00
2018-03-24T12:35:25.208Z,848.00
2018-03-24T12:36:25.195Z,952.00
2018-03-24T12:37:25.057Z,2540.00
2018-03-24T12:38:25.002Z,2640.00
2018-03-24T12:39:24.906Z,2704.00
2018-03-24T12:40:24.914Z,2772.00
2018-03-24T12:41:24.760Z,2808.00
2018-03-24T12:42:24.728Z,2812.00
2018-03-24T12:43:24.593Z,2748.00
2018-03-24T12:44:24.633Z,2728.00
2018-03-24T12:45:24.445Z,2664.00
2018-03-24T12:46:24.437Z,2760.00
2018-03-24T12:47:24.292Z,2776.00
2018-03-24T12:48:24.249Z,2768.00
2018-03-24T12:49:24.132Z,2668.00
2018-03-24T12:50:24.161Z,2668.00
2018-03-24T12:51:23.992Z,2728.00
2018-03-24T12:52:24.994Z,2320.00
2018-03-24T12:53:23.831Z,2192.00
2018-03-24T12:54:23.779Z,1940.00
2018-03-24T12:55:23.680Z,2740.00
2018-03-24T12:56:23.689Z,2692.00
2018-03-24T12:57:23.531Z,2664.00
2018-03-24T12:58:23.495Z,2748.00
2018-03-24T12:59:23.376Z,2876.00
2018-03-24T13:00:23.443Z,2852.00
2018-03-24T13:01:23.232Z,2824.00
2018-03-24T13:02:23.212Z,2844.00
2018-03-24T13:03:23.075Z,2060.00
2018-03-24T13:04:23.034Z,1592.00
2018-03-24T13:05:22.926Z,1468.00
2018-03-24T13:06:22.937Z,1920.00
2018-03-24T13:07:22.774Z,2124.00
2018-03-24T13:08:22.744Z,1900.00
2018-03-24T13:09:22.620Z,2912.00
2018-03-24T13:10:22.653Z,2628.00
2018-03-24T13:11:22.472Z,1572.00
2018-03-24T13:12:22.466Z,2636.00
2018-03-24T13:13:22.321Z,2680.00
2018-03-24T13:14:22.275Z,2656.00
2018-03-24T13:15:22.171Z,2748.00
2018-03-24T13:16:22.102Z,2820.00
2018-03-24T13:17:22.024Z,2816.00
2018-03-24T13:18:21.995Z,2828.00
2018-03-24T13:19:21.875Z,2584.00
2018-03-24T13:20:21.805Z,2412.00
2018-03-24T13:21:21.731Z,2936.00
2018-03-24T13:22:21.711Z,2888.00
2018-03-24T13:23:21.577Z,2852.00
2018-03-24T13:24:21.498Z,2784.00
2018-03-24T13:25:21.639Z,2844.00
2018-03-24T13:26:21.345Z,2800.00
2018-03-24T13:27:22.366Z,2916.00
2018-03-24T13:28:21.196Z,2944.00
2018-03-24T13:29:21.253Z,2940.00
2018-03-24T13:30:21.045Z,2896.00
2018-03-24T13:31:21.169Z,2132.00
2018-03-24T13:32:20.900Z,2648.00
2018-03-24T13:33:20.826Z,2368.00
2018-03-24T13:34:20.770Z,1704.00
2018-03-24T13:35:20.680Z,1328.00
2018-03-24T13:36:20.687Z,1248.00
2018-03-24T13:37:20.523Z,1280.00
2018-03-24T13:38:20.497Z,1128.00
2018-03-24T13:39:20.375Z,1140.00
2018-03-24T13:40:20.408Z,2248.00
2018-03-24T13:41:20.225Z,1296.00
2018-03-24T13:42:20.219Z,1772.00
2018-03-24T13:43:20.080Z,2428.00
2018-03-24T13:44:20.130Z,2600.00
2018-03-24T13:45:19.928Z,1468.00
2018-03-24T13:46:19.943Z,1756.00
2018-03-24T13:47:19.784Z,1300.00
2018-03-24T13:48:19.757Z,1100.00
2018-03-24T13:49:19.629Z,1124.00
2018-03-24T13:50:19.660Z,1164.00
2018-03-24T13:51:19.478Z,1144.00
2018-03-24T13:52:19.465Z,2132.00
2018-03-24T13:53:19.333Z,1044.00
2018-03-24T13:54:19.378Z,1052.00
2018-03-24T13:55:19.181Z,2360.00
2018-03-24T13:56:19.228Z,2560.00
2018-03-24T13:57:19.038Z,2440.00
2018-03-24T13:58:19.014Z,1748.00
2018-03-24T13:59:18.884Z,2420.00
2018-03-24T14:00:18.907Z,1852.00
2018-03-24T14:01:18.735Z,1392.00
2018-03-24T14:02:18.719Z,2344.00
2018-03-24T14:03:18.587Z,2204.00
2018-03-24T14:04:18.628Z,1132.00
2018-03-24T14:05:18.440Z,860.00
2018-03-24T14:06:18.436Z,1164.00
2018-03-24T14:07:18.298Z,2028.00
2018-03-24T14:08:18.348Z,2216.00
2018-03-24T14:09:18.147Z,2172.00
2018-03-24T14:10:18.161Z,2100.00
2018-03-24T14:11:17.992Z,2100.00
2018-03-24T14:12:17.968Z,2084.00
2018-03-24T14:13:17.836Z,2200.00
2018-03-24T14:14:17.888Z,2176.00
2018-03-24T14:15:17.694Z,2172.00
2018-03-24T14:16:17.690Z,2168.00
2018-03-24T14:17:17.546Z,2132.00
2018-03-24T14:18:17.498Z,2084.00
2018-03-24T14:19:17.397Z,2124.00
2018-03-24T14:20:17.408Z,2112.00
2018-03-24T14:21:17.252Z,2148.00
2018-03-24T14:22:17.316Z,2100.00
2018-03-24T14:23:17.101Z,2064.00
2018-03-24T14:24:17.128Z,1980.00
2018-03-24T14:25:16.959Z,2108.00
2018-03-24T14:26:16.938Z,2116.00
2018-03-24T14:27:16.801Z,2120.00
2018-03-24T14:28:16.848Z,2116.00
2018-03-24T14:29:16.658Z,2092.00
2018-03-24T14:30:16.659Z,2060.00
2018-03-24T14:31:16.511Z,2032.00
2018-03-24T14:32:16.568Z,2040.00
2018-03-24T14:33:16.360Z,1840.00
2018-03-24T14:34:16.374Z,1144.00
2018-03-24T14:35:16.230Z,1924.00
2018-03-24T14:36:16.189Z,2036.00
2018-03-24T14:37:16.073Z,2036.00
2018-03-24T14:38:16.097Z,852.00
2018-03-24T14:39:15.917Z,708.00
2018-03-24T14:40:15.905Z,680.00
2018-03-24T14:41:15.767Z,672.00
2018-03-24T14:42:15.722Z,724.00
2018-03-24T14:43:15.663Z,1928.00
2018-03-24T14:44:15.630Z,1944.00
2018-03-24T14:45:15.471Z,1684.00
2018-03-24T14:46:15.539Z,1104.00
2018-03-24T14:47:15.326Z,1812.00
2018-03-24T14:48:15.347Z,1392.00
2018-03-24T14:49:15.174Z,1916.00
2018-03-24T14:50:15.157Z,1784.00
2018-03-24T14:51:15.029Z,1764.00
2018-03-24T14:52:15.070Z,1808.00
2018-03-24T14:53:14.881Z,1844.00
2018-03-24T14:54:14.876Z,1792.00
2018-03-24T14:55:14.728Z,1696.00
2018-03-24T14:56:14.789Z,1760.00
2018-03-24T14:57:14.579Z,1788.00
2018-03-24T14:58:14.608Z,1748.00
2018-03-24T14:59:14.433Z,1740.00
2018-03-24T15:00:14.507Z,1756.00